Details for Flydubai at OMDB




Go Back


Latest METAR
Local Time

OMDB 252200Z 10003KT CAVOK 35/10 Q1004 NOSIG

26/05/2018, 02:23:03

Description
Results
Flydubai Logo
Number of Pilots based at OMDB
1 Pilots Based here
Number of Flydubai Flights Departed from OMDB
1 Flights Departed
Number of Flydubai Flights Arrived at OMDB
2 Flights Arrived
Number of Flydubai Schedules Departing from OMDB
222 Schedules
Number of Flydubai Schedules Arriving at OMDB
221 Schedules
Number of Flydubai Schedules Departing from OMDB availible today
135 Schedules Today
Number of Flydubai Schedules Arriving at OMDB availible today
134 Schedules Today
Average Landing Rate at OMDB
-231 fpm
Flydubai Average Landing Rate at OMDB
-84 fpm
Total Fuel Purchased at OMDB by Flydubai
2,484.33 kgs / 5,476.95 lbs

Pilots Based at OMDB


Pilot ID
Pilot Name
Pilot Rank
No. of Flights
No. of Flying Hours
Adam Noble
88
377.27
Content